sensor_id;sensor_type;location;lat;lon;timestamp;P1;durP1;ratioP1;P2;durP2;ratioP2
75191;SDS011;63771;52.580;9.734;2024-03-22T00:01:42;11.45;;;7.40;;
75191;SDS011;63771;52.580;9.734;2024-03-22T00:04:07;8.53;;;6.77;;
75191;SDS011;63771;52.580;9.734;2024-03-22T00:06:32;9.38;;;7.00;;
75191;SDS011;63771;52.580;9.734;2024-03-22T00:08:58;10.67;;;8.27;;
75191;SDS011;63771;52.580;9.734;2024-03-22T00:11:23;10.83;;;8.17;;
75191;SDS011;63771;52.580;9.734;2024-03-22T00:13:48;9.70;;;8.57;;
75191;SDS011;63771;52.580;9.734;2024-03-22T00:16:16;10.57;;;8.70;;
75191;SDS011;63771;52.580;9.734;2024-03-22T00:18:42;12.50;;;9.07;;
75191;SDS011;63771;52.580;9.734;2024-03-22T00:21:07;13.03;;;9.50;;
75191;SDS011;63771;52.580;9.734;2024-03-22T00:23:32;15.03;;;9.03;;
75191;SDS011;63771;52.580;9.734;2024-03-22T00:25:57;11.10;;;8.83;;
75191;SDS011;63771;52.580;9.734;2024-03-22T00:28:23;14.10;;;9.57;;
75191;SDS011;63771;52.580;9.734;2024-03-22T00:30:48;11.40;;;9.03;;
75191;SDS011;63771;52.580;9.734;2024-03-22T00:33:13;13.03;;;9.43;;
75191;SDS011;63771;52.580;9.734;2024-03-22T00:35:39;13.53;;;9.70;;
75191;SDS011;63771;52.580;9.734;2024-03-22T00:38:04;16.10;;;10.33;;
75191;SDS011;63771;52.580;9.734;2024-03-22T00:40:29;13.83;;;9.50;;
75191;SDS011;63771;52.580;9.734;2024-03-22T00:42:55;17.30;;;10.87;;
75191;SDS011;63771;52.580;9.734;2024-03-22T00:45:23;17.53;;;10.43;;
75191;SDS011;63771;52.580;9.734;2024-03-22T00:47:48;12.13;;;9.55;;
75191;SDS011;63771;52.580;9.734;2024-03-22T00:50:13;16.43;;;9.87;;
75191;SDS011;63771;52.580;9.734;2024-03-22T00:52:39;17.10;;;10.65;;
75191;SDS011;63771;52.580;9.734;2024-03-22T00:55:04;17.60;;;12.07;;
75191;SDS011;63771;52.580;9.734;2024-03-22T00:57:30;12.85;;;10.45;;
75191;SDS011;63771;52.580;9.734;2024-03-22T00:59:55;14.40;;;11.10;;
75191;SDS011;63771;52.580;9.734;2024-03-22T01:02:21;18.07;;;11.27;;
75191;SDS011;63771;52.580;9.734;2024-03-22T01:04:47;15.25;;;11.60;;
75191;SDS011;63771;52.580;9.734;2024-03-22T01:07:13;16.65;;;11.52;;
75191;SDS011;63771;52.580;9.734;2024-03-22T01:09:38;19.13;;;11.90;;
75191;SDS011;63771;52.580;9.734;2024-03-22T01:12:03;18.43;;;12.37;;
75191;SDS011;63771;52.580;9.734;2024-03-22T01:14:30;22.10;;;14.68;;
75191;SDS011;63771;52.580;9.734;2024-03-22T01:16:55;21.38;;;13.32;;
75191;SDS011;63771;52.580;9.734;2024-03-22T01:19:20;19.43;;;12.47;;
75191;SDS011;63771;52.580;9.734;2024-03-22T01:21:46;20.52;;;13.27;;
75191;SDS011;63771;52.580;9.734;2024-03-22T01:24:11;22.17;;;14.50;;
75191;SDS011;63771;52.580;9.734;2024-03-22T01:26:37;22.87;;;14.37;;
75191;SDS011;63771;52.580;9.734;2024-03-22T01:29:02;18.73;;;13.33;;
75191;SDS011;63771;52.580;9.734;2024-03-22T01:31:27;22.77;;;13.37;;
75191;SDS011;63771;52.580;9.734;2024-03-22T01:33:53;22.17;;;15.57;;
75191;SDS011;63771;52.580;9.734;2024-03-22T01:36:18;25.77;;;15.50;;
75191;SDS011;63771;52.580;9.734;2024-03-22T01:38:43;26.33;;;15.17;;
75191;SDS011;63771;52.580;9.734;2024-03-22T01:41:08;24.10;;;15.50;;
75191;SDS011;63771;52.580;9.734;2024-03-22T01:43:34;24.57;;;15.83;;
75191;SDS011;63771;52.580;9.734;2024-03-22T01:45:59;24.70;;;15.43;;
75191;SDS011;63771;52.580;9.734;2024-03-22T01:48:24;30.70;;;15.53;;
75191;SDS011;63771;52.580;9.734;2024-03-22T01:50:50;22.27;;;15.70;;
75191;SDS011;63771;52.580;9.734;2024-03-22T01:53:16;26.08;;;16.67;;
75191;SDS011;63771;52.580;9.734;2024-03-22T01:55:42;22.38;;;15.20;;
75191;SDS011;63771;52.580;9.734;2024-03-22T01:58:07;23.83;;;15.57;;
75191;SDS011;63771;52.580;9.734;2024-03-22T02:00:33;29.38;;;17.17;;
75191;SDS011;63771;52.580;9.734;2024-03-22T02:02:59;24.48;;;15.95;;
75191;SDS011;63771;52.580;9.734;2024-03-22T02:05:24;27.05;;;17.08;;
75191;SDS011;63771;52.580;9.734;2024-03-22T02:07:49;24.73;;;16.03;;
75191;SDS011;63771;52.580;9.734;2024-03-22T02:10:15;24.23;;;16.07;;
75191;SDS011;63771;52.580;9.734;2024-03-22T02:12:41;28.15;;;17.75;;
75191;SDS011;63771;52.580;9.734;2024-03-22T02:15:07;26.33;;;16.63;;
75191;SDS011;63771;52.580;9.734;2024-03-22T02:17:33;27.20;;;18.23;;
75191;SDS011;63771;52.580;9.734;2024-03-22T02:19:59;31.55;;;17.23;;
75191;SDS011;63771;52.580;9.734;2024-03-22T02:22:26;31.35;;;18.13;;
75191;SDS011;63771;52.580;9.734;2024-03-22T02:24:51;28.45;;;17.20;;
75191;SDS011;63771;52.580;9.734;2024-03-22T02:27:17;30.58;;;16.88;;
75191;SDS011;63771;52.580;9.734;2024-03-22T02:29:42;29.65;;;17.02;;
75191;SDS011;63771;52.580;9.734;2024-03-22T02:32:08;29.30;;;18.63;;
75191;SDS011;63771;52.580;9.734;2024-03-22T02:34:33;30.93;;;17.87;;
75191;SDS011;63771;52.580;9.734;2024-03-22T02:36:58;32.63;;;18.23;;
75191;SDS011;63771;52.580;9.734;2024-03-22T02:39:30;28.53;;;18.03;;
75191;SDS011;63771;52.580;9.734;2024-03-22T02:41:55;29.73;;;16.90;;
75191;SDS011;63771;52.580;9.734;2024-03-22T02:44:21;31.25;;;17.48;;
75191;SDS011;63771;52.580;9.734;2024-03-22T02:46:46;32.20;;;17.52;;
75191;SDS011;63771;52.580;9.734;2024-03-22T02:49:12;28.47;;;17.60;;
75191;SDS011;63771;52.580;9.734;2024-03-22T02:51:37;31.92;;;17.27;;
75191;SDS011;63771;52.580;9.734;2024-03-22T02:54:03;30.43;;;17.50;;
75191;SDS011;63771;52.580;9.734;2024-03-22T02:56:29;36.67;;;18.75;;
75191;SDS011;63771;52.580;9.734;2024-03-22T02:58:54;34.10;;;18.03;;
75191;SDS011;63771;52.580;9.734;2024-03-22T03:01:20;29.07;;;17.77;;
75191;SDS011;63771;52.580;9.734;2024-03-22T03:03:45;33.90;;;20.77;;
75191;SDS011;63771;52.580;9.734;2024-03-22T03:06:13;33.83;;;19.20;;
75191;SDS011;63771;52.580;9.734;2024-03-22T03:08:40;32.22;;;19.90;;
75191;SDS011;63771;52.580;9.734;2024-03-22T03:11:05;32.72;;;20.08;;
75191;SDS011;63771;52.580;9.734;2024-03-22T03:13:30;31.27;;;18.57;;
75191;SDS011;63771;52.580;9.734;2024-03-22T03:15:56;29.20;;;18.33;;
75191;SDS011;63771;52.580;9.734;2024-03-22T03:18:22;32.50;;;18.17;;
75191;SDS011;63771;52.580;9.734;2024-03-22T03:20:48;34.67;;;19.03;;
75191;SDS011;63771;52.580;9.734;2024-03-22T03:23:13;29.97;;;16.93;;
75191;SDS011;63771;52.580;9.734;2024-03-22T03:25:41;34.93;;;18.60;;
75191;SDS011;63771;52.580;9.734;2024-03-22T03:28:07;29.90;;;18.48;;
75191;SDS011;63771;52.580;9.734;2024-03-22T03:30:32;31.13;;;18.17;;
75191;SDS011;63771;52.580;9.734;2024-03-22T03:33:02;31.13;;;18.73;;
75191;SDS011;63771;52.580;9.734;2024-03-22T03:35:27;38.63;;;18.92;;
75191;SDS011;63771;52.580;9.734;2024-03-22T03:37:54;36.00;;;19.55;;
75191;SDS011;63771;52.580;9.734;2024-03-22T03:40:19;32.40;;;19.45;;
75191;SDS011;63771;52.580;9.734;2024-03-22T03:42:47;34.20;;;19.50;;
75191;SDS011;63771;52.580;9.734;2024-03-22T03:45:16;37.72;;;20.58;;
75191;SDS011;63771;52.580;9.734;2024-03-22T03:47:41;37.33;;;20.30;;
75191;SDS011;63771;52.580;9.734;2024-03-22T03:50:07;35.03;;;19.63;;
75191;SDS011;63771;52.580;9.734;2024-03-22T03:52:32;36.38;;;18.67;;
75191;SDS011;63771;52.580;9.734;2024-03-22T03:54:58;31.13;;;18.83;;
75191;SDS011;63771;52.580;9.734;2024-03-22T03:57:23;33.67;;;20.43;;
75191;SDS011;63771;52.580;9.734;2024-03-22T03:59:48;33.42;;;19.50;;
75191;SDS011;63771;52.580;9.734;2024-03-22T04:02:14;35.78;;;18.42;;
75191;SDS011;63771;52.580;9.734;2024-03-22T04:04:39;37.23;;;20.40;;
75191;SDS011;63771;52.580;9.734;2024-03-22T04:07:04;37.60;;;18.87;;
75191;SDS011;63771;52.580;9.734;2024-03-22T04:09:30;41.92;;;21.38;;
75191;SDS011;63771;52.580;9.734;2024-03-22T04:11:56;35.95;;;18.92;;
75191;SDS011;63771;52.580;9.734;2024-03-22T04:14:23;36.50;;;20.50;;
75191;SDS011;63771;52.580;9.734;2024-03-22T04:16:49;35.03;;;19.80;;
75191;SDS011;63771;52.580;9.734;2024-03-22T04:19:15;38.80;;;20.63;;
75191;SDS011;63771;52.580;9.734;2024-03-22T04:21:40;37.40;;;19.47;;
75191;SDS011;63771;52.580;9.734;2024-03-22T04:24:05;37.17;;;19.43;;
75191;SDS011;63771;52.580;9.734;2024-03-22T04:26:31;37.67;;;20.00;;
75191;SDS011;63771;52.580;9.734;2024-03-22T04:28:56;38.97;;;19.85;;
75191;SDS011;63771;52.580;9.734;2024-03-22T04:31:22;38.90;;;20.45;;
75191;SDS011;63771;52.580;9.734;2024-03-22T04:33:47;39.70;;;21.15;;
75191;SDS011;63771;52.580;9.734;2024-03-22T04:36:12;38.97;;;18.63;;
75191;SDS011;63771;52.580;9.734;2024-03-22T04:38:38;39.93;;;20.23;;
75191;SDS011;63771;52.580;9.734;2024-03-22T04:41:03;42.20;;;21.90;;
75191;SDS011;63771;52.580;9.734;2024-03-22T04:43:28;37.03;;;19.15;;
75191;SDS011;63771;52.580;9.734;2024-03-22T04:45:54;37.03;;;19.97;;
75191;SDS011;63771;52.580;9.734;2024-03-22T04:48:20;38.03;;;20.83;;
75191;SDS011;63771;52.580;9.734;2024-03-22T04:50:46;46.78;;;20.20;;
75191;SDS011;63771;52.580;9.734;2024-03-22T04:53:15;42.42;;;21.90;;
75191;SDS011;63771;52.580;9.734;2024-03-22T04:55:42;42.60;;;21.73;;
75191;SDS011;63771;52.580;9.734;2024-03-22T04:58:11;39.60;;;20.65;;
75191;SDS011;63771;52.580;9.734;2024-03-22T05:00:37;40.38;;;19.45;;
75191;SDS011;63771;52.580;9.734;2024-03-22T05:03:03;38.43;;;19.93;;
75191;SDS011;63771;52.580;9.734;2024-03-22T05:05:28;46.45;;;22.17;;
75191;SDS011;63771;52.580;9.734;2024-03-22T05:07:54;40.30;;;22.40;;
75191;SDS011;63771;52.580;9.734;2024-03-22T05:10:19;44.20;;;19.90;;
75191;SDS011;63771;52.580;9.734;2024-03-22T05:12:44;46.93;;;22.33;;
75191;SDS011;63771;52.580;9.734;2024-03-22T05:15:09;43.03;;;22.63;;
75191;SDS011;63771;52.580;9.734;2024-03-22T05:17:35;46.03;;;20.90;;
75191;SDS011;63771;52.580;9.734;2024-03-22T05:20:00;44.75;;;21.20;;
75191;SDS011;63771;52.580;9.734;2024-03-22T05:22:27;43.03;;;21.90;;
75191;SDS011;63771;52.580;9.734;2024-03-22T05:24:52;40.60;;;21.73;;
75191;SDS011;63771;52.580;9.734;2024-03-22T05:27:18;46.47;;;21.37;;
75191;SDS011;63771;52.580;9.734;2024-03-22T05:29:43;41.50;;;19.23;;
75191;SDS011;63771;52.580;9.734;2024-03-22T05:32:09;42.90;;;21.85;;
75191;SDS011;63771;52.580;9.734;2024-03-22T05:34:35;41.83;;;21.90;;
75191;SDS011;63771;52.580;9.734;2024-03-22T05:37:01;46.05;;;23.48;;
75191;SDS011;63771;52.580;9.734;2024-03-22T05:39:26;39.85;;;21.33;;
75191;SDS011;63771;52.580;9.734;2024-03-22T05:41:52;43.25;;;22.33;;
75191;SDS011;63771;52.580;9.734;2024-03-22T05:44:17;40.53;;;21.35;;
75191;SDS011;63771;52.580;9.734;2024-03-22T05:46:43;43.33;;;21.63;;
75191;SDS011;63771;52.580;9.734;2024-03-22T05:49:08;45.50;;;22.13;;
75191;SDS011;63771;52.580;9.734;2024-03-22T05:51:33;45.23;;;21.97;;
75191;SDS011;63771;52.580;9.734;2024-03-22T05:53:59;43.03;;;21.77;;
75191;SDS011;63771;52.580;9.734;2024-03-22T05:56:24;43.07;;;22.63;;
75191;SDS011;63771;52.580;9.734;2024-03-22T05:58:50;45.45;;;21.80;;
75191;SDS011;63771;52.580;9.734;2024-03-22T06:01:15;42.80;;;22.50;;
75191;SDS011;63771;52.580;9.734;2024-03-22T06:03:41;42.83;;;21.73;;
75191;SDS011;63771;52.580;9.734;2024-03-22T06:06:06;45.07;;;22.70;;
75191;SDS011;63771;52.580;9.734;2024-03-22T06:08:31;42.70;;;21.05;;
75191;SDS011;63771;52.580;9.734;2024-03-22T06:10:59;42.65;;;22.73;;
75191;SDS011;63771;52.580;9.734;2024-03-22T06:13:25;38.00;;;20.30;;
75191;SDS011;63771;52.580;9.734;2024-03-22T06:15:50;43.60;;;20.92;;
75191;SDS011;63771;52.580;9.734;2024-03-22T06:18:16;41.60;;;21.70;;
75191;SDS011;63771;52.580;9.734;2024-03-22T06:20:41;40.67;;;20.40;;
75191;SDS011;63771;52.580;9.734;2024-03-22T06:23:07;42.08;;;20.40;;
75191;SDS011;63771;52.580;9.734;2024-03-22T06:25:33;38.60;;;19.20;;
75191;SDS011;63771;52.580;9.734;2024-03-22T06:27:58;39.47;;;21.20;;
75191;SDS011;63771;52.580;9.734;2024-03-22T06:30:24;38.97;;;19.53;;
75191;SDS011;63771;52.580;9.734;2024-03-22T06:32:49;40.95;;;19.98;;
75191;SDS011;63771;52.580;9.734;2024-03-22T06:35:15;41.37;;;20.30;;
75191;SDS011;63771;52.580;9.734;2024-03-22T06:37:40;42.35;;;19.50;;
75191;SDS011;63771;52.580;9.734;2024-03-22T06:40:06;44.50;;;20.40;;
75191;SDS011;63771;52.580;9.734;2024-03-22T06:42:35;39.75;;;19.45;;
75191;SDS011;63771;52.580;9.734;2024-03-22T06:45:00;39.42;;;20.38;;
75191;SDS011;63771;52.580;9.734;2024-03-22T06:47:27;46.58;;;21.35;;
75191;SDS011;63771;52.580;9.734;2024-03-22T06:49:52;36.47;;;20.00;;
75191;SDS011;63771;52.580;9.734;2024-03-22T06:52:18;39.63;;;19.43;;
75191;SDS011;63771;52.580;9.734;2024-03-22T06:54:44;33.70;;;16.55;;
75191;SDS011;63771;52.580;9.734;2024-03-22T06:57:09;32.30;;;18.80;;
75191;SDS011;63771;52.580;9.734;2024-03-22T06:59:35;37.10;;;19.40;;
75191;SDS011;63771;52.580;9.734;2024-03-22T07:02:00;39.65;;;19.60;;
75191;SDS011;63771;52.580;9.734;2024-03-22T07:04:25;33.50;;;17.77;;
75191;SDS011;63771;52.580;9.734;2024-03-22T07:06:51;34.07;;;16.60;;
75191;SDS011;63771;52.580;9.734;2024-03-22T07:09:16;28.33;;;16.33;;
75191;SDS011;63771;52.580;9.734;2024-03-22T07:11:41;31.43;;;16.43;;
75191;SDS011;63771;52.580;9.734;2024-03-22T07:14:07;29.85;;;17.15;;
75191;SDS011;63771;52.580;9.734;2024-03-22T07:16:32;24.97;;;16.10;;
75191;SDS011;63771;52.580;9.734;2024-03-22T07:18:58;31.80;;;16.60;;
75191;SDS011;63771;52.580;9.734;2024-03-22T07:21:23;30.77;;;17.10;;
75191;SDS011;63771;52.580;9.734;2024-03-22T07:23:48;30.60;;;15.33;;
75191;SDS011;63771;52.580;9.734;2024-03-22T07:26:14;32.30;;;15.83;;
75191;SDS011;63771;52.580;9.734;2024-03-22T07:28:39;33.70;;;16.80;;
75191;SDS011;63771;52.580;9.734;2024-03-22T07:31:04;28.67;;;16.90;;
75191;SDS011;63771;52.580;9.734;2024-03-22T07:33:31;29.65;;;14.75;;
75191;SDS011;63771;52.580;9.734;2024-03-22T07:35:56;28.98;;;14.82;;
75191;SDS011;63771;52.580;9.734;2024-03-22T07:38:22;33.63;;;16.37;;
75191;SDS011;63771;52.580;9.734;2024-03-22T07:40:47;30.47;;;16.67;;
75191;SDS011;63771;52.580;9.734;2024-03-22T07:43:12;28.60;;;13.60;;
75191;SDS011;63771;52.580;9.734;2024-03-22T07:45:39;30.95;;;17.80;;
75191;SDS011;63771;52.580;9.734;2024-03-22T07:48:05;27.87;;;15.37;;
75191;SDS011;63771;52.580;9.734;2024-03-22T07:50:30;31.50;;;16.35;;
75191;SDS011;63771;52.580;9.734;2024-03-22T07:52:55;34.15;;;16.48;;
75191;SDS011;63771;52.580;9.734;2024-03-22T07:55:22;32.10;;;15.27;;
75191;SDS011;63771;52.580;9.734;2024-03-22T07:57:47;28.63;;;16.05;;
75191;SDS011;63771;52.580;9.734;2024-03-22T08:00:13;32.60;;;16.50;;
75191;SDS011;63771;52.580;9.734;2024-03-22T08:02:39;29.63;;;16.13;;
75191;SDS011;63771;52.580;9.734;2024-03-22T08:05:04;31.63;;;16.88;;
75191;SDS011;63771;52.580;9.734;2024-03-22T08:07:31;29.88;;;15.73;;
75191;SDS011;63771;52.580;9.734;2024-03-22T08:09:56;31.45;;;16.27;;
75191;SDS011;63771;52.580;9.734;2024-03-22T08:12:23;29.08;;;16.50;;
75191;SDS011;63771;52.580;9.734;2024-03-22T08:14:49;27.35;;;15.68;;
75191;SDS011;63771;52.580;9.734;2024-03-22T08:17:15;33.25;;;17.00;;
75191;SDS011;63771;52.580;9.734;2024-03-22T08:19:40;30.63;;;15.33;;
75191;SDS011;63771;52.580;9.734;2024-03-22T08:22:06;27.10;;;14.60;;
75191;SDS011;63771;52.580;9.734;2024-03-22T08:24:31;29.75;;;16.10;;
75191;SDS011;63771;52.580;9.734;2024-03-22T08:26:57;31.83;;;16.17;;
75191;SDS011;63771;52.580;9.734;2024-03-22T08:29:22;31.23;;;17.55;;
75191;SDS011;63771;52.580;9.734;2024-03-22T08:31:47;26.60;;;17.30;;
75191;SDS011;63771;52.580;9.734;2024-03-22T08:34:12;31.33;;;16.37;;
75191;SDS011;63771;52.580;9.734;2024-03-22T08:36:38;27.63;;;17.53;;
75191;SDS011;63771;52.580;9.734;2024-03-22T08:39:04;30.00;;;16.25;;
75191;SDS011;63771;52.580;9.734;2024-03-22T08:41:30;30.17;;;17.83;;
75191;SDS011;63771;52.580;9.734;2024-03-22T08:43:55;32.25;;;18.20;;
75191;SDS011;63771;52.580;9.734;2024-03-22T08:46:22;30.98;;;17.80;;
75191;SDS011;63771;52.580;9.734;2024-03-22T08:48:48;32.83;;;16.83;;
75191;SDS011;63771;52.580;9.734;2024-03-22T08:51:13;31.07;;;17.77;;
75191;SDS011;63771;52.580;9.734;2024-03-22T08:53:38;31.30;;;16.80;;
75191;SDS011;63771;52.580;9.734;2024-03-22T08:56:04;34.63;;;16.93;;
75191;SDS011;63771;52.580;9.734;2024-03-22T08:58:29;33.28;;;16.67;;
75191;SDS011;63771;52.580;9.734;2024-03-22T09:00:54;32.23;;;16.43;;
75191;SDS011;63771;52.580;9.734;2024-03-22T09:03:20;35.27;;;17.70;;
75191;SDS011;63771;52.580;9.734;2024-03-22T09:05:46;30.52;;;16.67;;
75191;SDS011;63771;52.580;9.734;2024-03-22T09:08:11;31.52;;;17.27;;
75191;SDS011;63771;52.580;9.734;2024-03-22T09:10:37;32.57;;;17.20;;
75191;SDS011;63771;52.580;9.734;2024-03-22T09:13:02;28.67;;;16.23;;
75191;SDS011;63771;52.580;9.734;2024-03-22T09:15:27;38.92;;;20.67;;
75191;SDS011;63771;52.580;9.734;2024-03-22T09:17:53;35.83;;;18.00;;
75191;SDS011;63771;52.580;9.734;2024-03-22T09:20:18;31.02;;;16.05;;
75191;SDS011;63771;52.580;9.734;2024-03-22T09:22:43;35.47;;;19.37;;
75191;SDS011;63771;52.580;9.734;2024-03-22T09:25:09;27.77;;;16.80;;
75191;SDS011;63771;52.580;9.734;2024-03-22T09:27:34;29.40;;;17.93;;
75191;SDS011;63771;52.580;9.734;2024-03-22T09:29:59;37.40;;;19.13;;
75191;SDS011;63771;52.580;9.734;2024-03-22T09:32:26;31.88;;;18.05;;
75191;SDS011;63771;52.580;9.734;2024-03-22T09:34:51;34.15;;;16.90;;
75191;SDS011;63771;52.580;9.734;2024-03-22T09:37:17;29.77;;;17.88;;
75191;SDS011;63771;52.580;9.734;2024-03-22T09:39:42;37.42;;;19.75;;
75191;SDS011;63771;52.580;9.734;2024-03-22T09:42:08;31.17;;;18.83;;
75191;SDS011;63771;52.580;9.734;2024-03-22T09:44:34;31.92;;;17.73;;
75191;SDS011;63771;52.580;9.734;2024-03-22T09:47:01;31.23;;;17.63;;
75191;SDS011;63771;52.580;9.734;2024-03-22T09:49:27;33.05;;;17.65;;
75191;SDS011;63771;52.580;9.734;2024-03-22T09:51:52;40.50;;;21.88;;
75191;SDS011;63771;52.580;9.734;2024-03-22T09:54:18;41.45;;;23.73;;
75191;SDS011;63771;52.580;9.734;2024-03-22T09:56:43;34.15;;;18.38;;
75191;SDS011;63771;52.580;9.734;2024-03-22T09:59:09;32.88;;;18.70;;
75191;SDS011;63771;52.580;9.734;2024-03-22T10:01:37;33.15;;;19.60;;
75191;SDS011;63771;52.580;9.734;2024-03-22T10:04:05;38.47;;;20.63;;
75191;SDS011;63771;52.580;9.734;2024-03-22T10:06:33;38.00;;;20.52;;
75191;SDS011;63771;52.580;9.734;2024-03-22T10:08:59;38.40;;;21.58;;
75191;SDS011;63771;52.580;9.734;2024-03-22T10:11:25;36.13;;;20.77;;
75191;SDS011;63771;52.580;9.734;2024-03-22T10:13:51;35.65;;;20.23;;
75191;SDS011;63771;52.580;9.734;2024-03-22T10:16:17;34.10;;;20.07;;
75191;SDS011;63771;52.580;9.734;2024-03-22T10:18:42;33.67;;;19.50;;
75191;SDS011;63771;52.580;9.734;2024-03-22T10:21:07;36.03;;;18.83;;
75191;SDS011;63771;52.580;9.734;2024-03-22T10:23:33;35.67;;;21.03;;
75191;SDS011;63771;52.580;9.734;2024-03-22T10:25:59;35.80;;;20.38;;
75191;SDS011;63771;52.580;9.734;2024-03-22T10:28:25;34.15;;;18.73;;
75191;SDS011;63771;52.580;9.734;2024-03-22T10:30:53;34.03;;;19.55;;
75191;SDS011;63771;52.580;9.734;2024-03-22T10:33:19;33.85;;;19.33;;
75191;SDS011;63771;52.580;9.734;2024-03-22T10:35:47;32.28;;;18.95;;
75191;SDS011;63771;52.580;9.734;2024-03-22T10:38:16;29.92;;;18.02;;
75191;SDS011;63771;52.580;9.734;2024-03-22T10:40:44;33.90;;;19.17;;
75191;SDS011;63771;52.580;9.734;2024-03-22T10:43:13;33.65;;;21.73;;
75191;SDS011;63771;52.580;9.734;2024-03-22T10:45:41;31.95;;;18.83;;
75191;SDS011;63771;52.580;9.734;2024-03-22T10:48:10;33.03;;;18.80;;
75191;SDS011;63771;52.580;9.734;2024-03-22T10:50:39;34.95;;;20.20;;
75191;SDS011;63771;52.580;9.734;2024-03-22T10:53:07;33.58;;;19.33;;
75191;SDS011;63771;52.580;9.734;2024-03-22T10:55:41;33.10;;;21.10;;
75191;SDS011;63771;52.580;9.734;2024-03-22T10:58:14;32.28;;;20.52;;
75191;SDS011;63771;52.580;9.734;2024-03-22T11:00:41;36.70;;;21.70;;
75191;SDS011;63771;52.580;9.734;2024-03-22T11:03:12;32.80;;;20.13;;
75191;SDS011;63771;52.580;9.734;2024-03-22T11:05:44;32.15;;;20.05;;
75191;SDS011;63771;52.580;9.734;2024-03-22T11:08:13;37.75;;;21.35;;
75191;SDS011;63771;52.580;9.734;2024-03-22T11:13:15;30.40;;;20.33;;
75191;SDS011;63771;52.580;9.734;2024-03-22T11:15:41;33.45;;;19.02;;
75191;SDS011;63771;52.580;9.734;2024-03-22T11:18:07;32.72;;;20.02;;
75191;SDS011;63771;52.580;9.734;2024-03-22T11:20:32;33.53;;;20.63;;
75191;SDS011;63771;52.580;9.734;2024-03-22T11:23:03;34.42;;;21.45;;
75191;SDS011;63771;52.580;9.734;2024-03-22T11:25:32;31.10;;;19.50;;
75191;SDS011;63771;52.580;9.734;2024-03-22T11:27:57;30.52;;;18.48;;
75191;SDS011;63771;52.580;9.734;2024-03-22T11:30:24;26.05;;;18.00;;
75191;SDS011;63771;52.580;9.734;2024-03-22T11:32:50;28.33;;;19.05;;
75191;SDS011;63771;52.580;9.734;2024-03-22T11:35:16;33.30;;;19.63;;
75191;SDS011;63771;52.580;9.734;2024-03-22T11:37:41;28.45;;;20.52;;
75191;SDS011;63771;52.580;9.734;2024-03-22T11:40:10;29.98;;;17.58;;
75191;SDS011;63771;52.580;9.734;2024-03-22T11:42:37;28.02;;;18.27;;
75191;SDS011;63771;52.580;9.734;2024-03-22T11:47:31;27.23;;;17.70;;
75191;SDS011;63771;52.580;9.734;2024-03-22T11:49:58;27.70;;;17.90;;
75191;SDS011;63771;52.580;9.734;2024-03-22T11:52:24;29.13;;;19.48;;
75191;SDS011;63771;52.580;9.734;2024-03-22T11:54:53;27.30;;;18.58;;
75191;SDS011;63771;52.580;9.734;2024-03-22T11:57:20;28.05;;;17.25;;
75191;SDS011;63771;52.580;9.734;2024-03-22T11:59:46;30.95;;;18.98;;
75191;SDS011;63771;52.580;9.734;2024-03-22T12:02:11;26.83;;;17.02;;
75191;SDS011;63771;52.580;9.734;2024-03-22T12:04:40;30.00;;;18.50;;
75191;SDS011;63771;52.580;9.734;2024-03-22T12:07:15;29.67;;;18.35;;
75191;SDS011;63771;52.580;9.734;2024-03-22T12:09:42;25.35;;;17.00;;
75191;SDS011;63771;52.580;9.734;2024-03-22T12:12:09;28.02;;;16.25;;
75191;SDS011;63771;52.580;9.734;2024-03-22T12:14:35;27.42;;;17.10;;
75191;SDS011;63771;52.580;9.734;2024-03-22T12:17:04;32.53;;;19.50;;
75191;SDS011;63771;52.580;9.734;2024-03-22T12:19:30;25.98;;;16.83;;
75191;SDS011;63771;52.580;9.734;2024-03-22T12:21:55;29.80;;;17.17;;
75191;SDS011;63771;52.580;9.734;2024-03-22T12:24:21;28.20;;;16.48;;
75191;SDS011;63771;52.580;9.734;2024-03-22T12:26:47;29.55;;;19.00;;
75191;SDS011;63771;52.580;9.734;2024-03-22T12:29:14;29.15;;;15.77;;
75191;SDS011;63771;52.580;9.734;2024-03-22T12:31:43;30.27;;;17.58;;
75191;SDS011;63771;52.580;9.734;2024-03-22T12:34:08;30.08;;;17.38;;
75191;SDS011;63771;52.580;9.734;2024-03-22T12:36:34;28.38;;;18.70;;
75191;SDS011;63771;52.580;9.734;2024-03-22T12:38:59;29.20;;;18.60;;
75191;SDS011;63771;52.580;9.734;2024-03-22T12:41:25;31.65;;;18.92;;
75191;SDS011;63771;52.580;9.734;2024-03-22T12:43:51;28.75;;;17.67;;
75191;SDS011;63771;52.580;9.734;2024-03-22T12:46:16;28.20;;;17.23;;
75191;SDS011;63771;52.580;9.734;2024-03-22T12:48:42;25.77;;;15.90;;
75191;SDS011;63771;52.580;9.734;2024-03-22T12:51:07;29.50;;;18.33;;
75191;SDS011;63771;52.580;9.734;2024-03-22T12:53:32;31.05;;;17.70;;
75191;SDS011;63771;52.580;9.734;2024-03-22T12:55:58;31.20;;;18.33;;
75191;SDS011;63771;52.580;9.734;2024-03-22T12:58:23;32.17;;;17.33;;
75191;SDS011;63771;52.580;9.734;2024-03-22T13:00:48;29.52;;;17.27;;
75191;SDS011;63771;52.580;9.734;2024-03-22T13:03:14;28.47;;;16.90;;
75191;SDS011;63771;52.580;9.734;2024-03-22T13:05:40;29.85;;;17.20;;
75191;SDS011;63771;52.580;9.734;2024-03-22T13:08:06;28.60;;;18.80;;
75191;SDS011;63771;52.580;9.734;2024-03-22T13:10:32;30.63;;;17.48;;
75191;SDS011;63771;52.580;9.734;2024-03-22T13:12:57;29.50;;;18.25;;
75191;SDS011;63771;52.580;9.734;2024-03-22T13:15:26;30.73;;;17.63;;
75191;SDS011;63771;52.580;9.734;2024-03-22T13:17:51;30.80;;;17.70;;
75191;SDS011;63771;52.580;9.734;2024-03-22T13:20:21;29.35;;;17.58;;
75191;SDS011;63771;52.580;9.734;2024-03-22T13:22:46;25.60;;;15.95;;
75191;SDS011;63771;52.580;9.734;2024-03-22T13:25:12;26.80;;;16.23;;
75191;SDS011;63771;52.580;9.734;2024-03-22T13:27:37;26.98;;;15.73;;
75191;SDS011;63771;52.580;9.734;2024-03-22T13:30:08;25.02;;;16.15;;
75191;SDS011;63771;52.580;9.734;2024-03-22T13:32:37;26.77;;;14.32;;
75191;SDS011;63771;52.580;9.734;2024-03-22T13:35:03;27.35;;;16.05;;
75191;SDS011;63771;52.580;9.734;2024-03-22T13:37:30;30.58;;;16.83;;
75191;SDS011;63771;52.580;9.734;2024-03-22T13:39:55;21.48;;;15.23;;
75191;SDS011;63771;52.580;9.734;2024-03-22T13:42:21;23.80;;;15.48;;
75191;SDS011;63771;52.580;9.734;2024-03-22T13:44:46;27.42;;;16.63;;
75191;SDS011;63771;52.580;9.734;2024-03-22T13:47:11;21.97;;;14.43;;
75191;SDS011;63771;52.580;9.734;2024-03-22T13:49:37;24.10;;;15.32;;
75191;SDS011;63771;52.580;9.734;2024-03-22T13:52:06;19.98;;;12.13;;
75191;SDS011;63771;52.580;9.734;2024-03-22T13:54:32;26.05;;;11.80;;
75191;SDS011;63771;52.580;9.734;2024-03-22T13:56:57;18.42;;;11.07;;
75191;SDS011;63771;52.580;9.734;2024-03-22T13:59:23;19.65;;;11.20;;
75191;SDS011;63771;52.580;9.734;2024-03-22T14:01:48;15.60;;;10.25;;
75191;SDS011;63771;52.580;9.734;2024-03-22T14:04:13;16.92;;;10.35;;
75191;SDS011;63771;52.580;9.734;2024-03-22T14:06:40;18.70;;;9.07;;
75191;SDS011;63771;52.580;9.734;2024-03-22T14:09:06;14.95;;;9.80;;
75191;SDS011;63771;52.580;9.734;2024-03-22T14:14:00;12.47;;;9.40;;
75191;SDS011;63771;52.580;9.734;2024-03-22T14:16:25;13.60;;;8.00;;
75191;SDS011;63771;52.580;9.734;2024-03-22T14:18:51;16.13;;;9.63;;
75191;SDS011;63771;52.580;9.734;2024-03-22T14:21:17;14.60;;;9.98;;
75191;SDS011;63771;52.580;9.734;2024-03-22T14:23:49;13.32;;;9.32;;